createdAt,value
2023-02-08T00:00:34.992Z,93.59
2023-02-08T00:03:01.380Z,94.31
2023-02-08T00:03:35.815Z,94.31
2023-02-08T00:05:27.753Z,94.32
2023-02-08T00:07:54.164Z,93.83
2023-02-08T00:08:35.734Z,93.83
2023-02-08T00:10:20.497Z,94.00
2023-02-08T00:12:46.902Z,93.23
2023-02-08T00:13:35.752Z,93.23
2023-02-08T00:15:13.474Z,92.90
2023-02-08T00:17:39.854Z,92.36
2023-02-08T00:18:35.752Z,92.36
2023-02-08T00:20:06.886Z,91.78
2023-02-08T00:22:33.280Z,92.19
2023-02-08T00:23:35.737Z,92.19
2023-02-08T00:24:59.664Z,91.33
2023-02-08T00:27:26.132Z,90.61
2023-02-08T00:28:35.814Z,90.61
2023-02-08T00:29:52.556Z,89.90
2023-02-08T00:32:18.875Z,89.43
2023-02-08T00:33:35.773Z,89.43
2023-02-08T00:34:45.319Z,89.51
2023-02-08T00:37:11.678Z,89.15
2023-02-08T00:38:35.769Z,89.15
2023-02-08T00:39:38.226Z,87.72
2023-02-08T00:42:04.655Z,88.13
2023-02-08T00:43:35.774Z,88.13
2023-02-08T00:44:31.065Z,87.91
2023-02-08T00:46:57.538Z,88.76
2023-02-08T00:48:35.731Z,88.76
2023-02-08T00:49:24.014Z,89.37
2023-02-08T00:51:50.376Z,89.06
2023-02-08T00:53:35.736Z,89.06
2023-02-08T00:54:18.614Z,88.29
2023-02-08T00:56:45.230Z,89.35
2023-02-08T00:58:35.757Z,89.35
2023-02-08T00:59:12.179Z,89.39
2023-02-08T01:01:39.619Z,89.87
2023-02-08T01:03:35.753Z,89.87
2023-02-08T01:04:06.537Z,90.33
2023-02-08T01:06:33.190Z,90.48
2023-02-08T01:08:35.757Z,90.48
2023-02-08T01:08:59.554Z,91.73
2023-02-08T01:11:26.488Z,91.03
2023-02-08T01:13:35.867Z,91.03
2023-02-08T01:13:54.444Z,91.60
2023-02-08T01:16:23.219Z,91.31
2023-02-08T01:18:35.743Z,91.31
2023-02-08T01:18:51.520Z,92.03
2023-02-08T01:21:22.038Z,91.60
2023-02-08T01:23:35.779Z,91.60
2023-02-08T01:23:48.958Z,91.39
2023-02-08T01:26:16.865Z,91.76
2023-02-08T01:28:35.762Z,91.76
2023-02-08T01:28:43.979Z,92.40
2023-02-08T01:31:13.669Z,93.06
2023-02-08T01:33:35.790Z,93.06
2023-02-08T01:33:40.272Z,92.93
2023-02-08T01:36:07.354Z,93.25
2023-02-08T01:38:34.675Z,92.82
2023-02-08T01:38:35.742Z,92.82
2023-02-08T01:41:01.426Z,93.92
2023-02-08T01:43:35.505Z,93.95
2023-02-08T01:43:35.771Z,93.95
2023-02-08T01:46:02.015Z,93.90
2023-02-08T01:48:38.810Z,92.31
2023-02-08T01:48:38.974Z,92.31
2023-02-08T01:51:10.853Z,92.73
2023-02-08T01:53:35.735Z,92.73
2023-02-08T01:53:37.749Z,92.20
2023-02-08T01:56:09.410Z,92.60
2023-02-08T01:58:40.859Z,92.17
2023-02-08T01:58:41.027Z,92.17
2023-02-08T02:01:08.357Z,92.44
2023-02-08T02:03:34.917Z,91.77
2023-02-08T02:03:35.838Z,91.77
2023-02-08T02:06:06.301Z,92.41
2023-02-08T02:08:32.807Z,93.36
2023-02-08T02:08:35.758Z,93.36
2023-02-08T02:10:59.477Z,93.11
2023-02-08T02:13:27.909Z,94.22
2023-02-08T02:13:35.788Z,94.22
2023-02-08T02:15:54.344Z,93.81
2023-02-08T02:18:27.612Z,93.78
2023-02-08T02:18:35.780Z,93.78
2023-02-08T02:21:12.025Z,95.17
2023-02-08T02:23:35.766Z,95.17
2023-02-08T02:23:59.986Z,95.38
2023-02-08T02:26:35.519Z,94.40
2023-02-08T02:28:35.795Z,94.40
2023-02-08T02:29:35.911Z,95.98
2023-02-08T02:32:17.481Z,96.68
2023-02-08T02:33:35.760Z,96.68
2023-02-08T02:35:08.061Z,96.83
2023-02-08T02:37:49.441Z,97.95
2023-02-08T02:38:35.766Z,97.95
2023-02-08T02:40:25.920Z,97.60
2023-02-08T02:43:19.565Z,98.51
2023-02-08T02:43:35.782Z,98.51
2023-02-08T02:46:03.659Z,98.88
2023-02-08T02:48:48.933Z,99.45
2023-02-08T02:48:49.072Z,99.45
2023-02-08T02:51:25.769Z,99.92
2023-02-08T02:53:35.763Z,99.92
2023-02-08T02:53:58.580Z,100.00
2023-02-08T02:56:30.779Z,100.00
2023-02-08T02:58:35.811Z,100.00
2023-02-08T02:59:01.176Z,100.00
2023-02-08T03:01:29.959Z,100.00
2023-02-08T03:03:35.766Z,100.00
2023-02-08T03:03:57.553Z,100.00
2023-02-08T03:06:55.264Z,100.00
2023-02-08T03:08:35.767Z,100.00
2023-02-08T03:10:00.210Z,100.00
2023-02-08T03:12:57.622Z,100.00
2023-02-08T03:13:35.807Z,100.00
2023-02-08T03:15:37.732Z,100.00
2023-02-08T03:18:28.152Z,100.00
2023-02-08T03:18:35.804Z,100.00
2023-02-08T03:21:29.851Z,100.00
2023-02-08T03:23:35.779Z,100.00
2023-02-08T03:24:14.159Z,100.00
2023-02-08T03:26:49.800Z,100.00
2023-02-08T03:28:35.802Z,100.00
2023-02-08T03:29:30.781Z,100.00
2023-02-08T03:32:06.470Z,100.00
2023-02-08T03:33:35.788Z,100.00
2023-02-08T03:34:46.034Z,100.00
2023-02-08T03:37:21.577Z,100.00
2023-02-08T03:38:35.776Z,100.00
2023-02-08T03:39:52.318Z,100.00
2023-02-08T03:42:25.397Z,100.00
2023-02-08T03:43:35.796Z,100.00
2023-02-08T03:44:58.346Z,100.00
2023-02-08T03:47:36.836Z,100.00
2023-02-08T03:48:35.782Z,100.00
2023-02-08T03:50:07.620Z,100.00
2023-02-08T03:52:35.754Z,100.00
2023-02-08T03:53:35.771Z,100.00
2023-02-08T03:55:07.310Z,100.00
2023-02-08T03:57:43.201Z,100.00
2023-02-08T03:58:35.801Z,100.00
2023-02-08T04:00:14.520Z,100.00
2023-02-08T04:02:48.647Z,100.00
2023-02-08T04:03:35.826Z,100.00
2023-02-08T04:05:15.136Z,100.00
2023-02-08T04:07:41.716Z,100.00
2023-02-08T04:08:35.766Z,100.00
2023-02-08T04:10:08.478Z,100.00
2023-02-08T04:12:34.828Z,100.00
2023-02-08T04:13:35.798Z,100.00
2023-02-08T04:15:01.213Z,100.00
2023-02-08T04:17:27.652Z,100.00
2023-02-08T04:18:35.760Z,100.00
2023-02-08T04:19:54.003Z,100.00
2023-02-08T04:22:20.376Z,100.00
2023-02-08T04:23:35.811Z,100.00
2023-02-08T04:24:46.787Z,100.00
2023-02-08T04:27:13.262Z,100.00
2023-02-08T04:28:35.768Z,100.00
2023-02-08T04:29:41.215Z,100.00
2023-02-08T04:32:11.539Z,100.00
2023-02-08T04:33:35.770Z,100.00
2023-02-08T04:34:38.632Z,100.00
2023-02-08T04:37:05.611Z,100.00
2023-02-08T04:38:35.911Z,100.00
2023-02-08T04:39:32.048Z,100.00
2023-02-08T04:41:59.982Z,100.00
2023-02-08T04:43:35.796Z,100.00
2023-02-08T04:44:27.543Z,100.00
2023-02-08T04:46:54.022Z,100.00
2023-02-08T04:48:35.796Z,100.00
2023-02-08T04:49:20.544Z,100.00
2023-02-08T04:51:46.896Z,100.00
2023-02-08T04:53:35.796Z,100.00
2023-02-08T04:54:13.299Z,100.00
2023-02-08T04:56:39.917Z,100.00
2023-02-08T04:58:35.782Z,100.00
2023-02-08T04:59:06.391Z,100.00
2023-02-08T05:01:32.970Z,100.00
2023-02-08T05:03:35.813Z,100.00
2023-02-08T05:03:59.420Z,100.00
2023-02-08T05:06:25.920Z,100.00
2023-02-08T05:08:35.781Z,100.00
2023-02-08T05:08:52.271Z,100.00
2023-02-08T05:11:23.179Z,100.00
2023-02-08T05:13:35.802Z,100.00
2023-02-08T05:13:50.056Z,100.00
2023-02-08T05:16:17.029Z,100.00
2023-02-08T05:18:35.807Z,100.00
2023-02-08T05:18:43.810Z,100.00
2023-02-08T05:21:10.681Z,100.00
2023-02-08T05:23:35.802Z,100.00
2023-02-08T05:23:37.982Z,100.00
2023-02-08T05:26:08.491Z,100.00
2023-02-08T05:28:35.431Z,100.00
2023-02-08T05:28:35.822Z,100.00
2023-02-08T05:31:17.331Z,100.00
2023-02-08T05:33:35.801Z,100.00
2023-02-08T05:33:43.984Z,100.00
2023-02-08T05:36:10.452Z,100.00
2023-02-08T05:38:36.862Z,100.00
2023-02-08T05:38:37.003Z,100.00
2023-02-08T05:41:03.300Z,100.00
2023-02-08T05:43:29.676Z,100.00
2023-02-08T05:43:35.834Z,100.00
2023-02-08T05:45:56.133Z,100.00
2023-02-08T05:48:22.756Z,100.00
2023-02-08T05:48:35.777Z,100.00
2023-02-08T05:50:49.204Z,100.00
2023-02-08T05:53:15.565Z,100.00
2023-02-08T05:53:35.801Z,100.00
2023-02-08T05:55:46.112Z,100.00
2023-02-08T05:58:13.023Z,100.00
2023-02-08T05:58:35.786Z,100.00
2023-02-08T06:00:40.229Z,100.00
2023-02-08T06:03:06.935Z,100.00
2023-02-08T06:03:35.796Z,100.00
2023-02-08T06:05:33.752Z,100.00
2023-02-08T06:08:00.183Z,100.00
2023-02-08T06:08:35.782Z,100.00
2023-02-08T06:10:26.504Z,100.00
2023-02-08T06:12:52.820Z,100.00
2023-02-08T06:13:35.798Z,100.00
2023-02-08T06:15:19.171Z,100.00
2023-02-08T06:17:45.500Z,100.00
2023-02-08T06:18:35.783Z,100.00
2023-02-08T06:20:12.053Z,100.00
2023-02-08T06:22:38.628Z,100.00
2023-02-08T06:23:35.761Z,100.00
2023-02-08T06:25:05.241Z,100.00
2023-02-08T06:27:31.641Z,100.00
2023-02-08T06:28:35.817Z,100.00
2023-02-08T06:29:58.060Z,100.00
2023-02-08T06:32:25.955Z,100.00
2023-02-08T06:33:35.804Z,100.00
2023-02-08T06:34:52.365Z,100.00
2023-02-08T06:37:19.179Z,100.00
2023-02-08T06:38:35.804Z,100.00
2023-02-08T06:39:45.612Z,100.00
2023-02-08T06:42:12.539Z,100.00
2023-02-08T06:43:35.787Z,100.00
2023-02-08T06:44:45.911Z,100.00
2023-02-08T06:47:17.942Z,100.00
2023-02-08T06:48:35.795Z,100.00
2023-02-08T06:49:44.330Z,100.00
2023-02-08T06:52:10.789Z,100.00
2023-02-08T06:53:35.773Z,100.00
2023-02-08T06:54:37.304Z,100.00
2023-02-08T06:57:04.201Z,100.00
2023-02-08T06:58:35.803Z,100.00
2023-02-08T06:59:30.537Z,100.00
2023-02-08T07:01:57.866Z,100.00
2023-02-08T07:03:35.768Z,100.00
2023-02-08T07:04:25.158Z,100.00
2023-02-08T07:06:51.591Z,100.00
2023-02-08T07:08:35.772Z,100.00
2023-02-08T07:09:18.069Z,100.00
2023-02-08T07:11:44.462Z,100.00
2023-02-08T07:13:35.870Z,100.00
2023-02-08T07:14:13.422Z,100.00
2023-02-08T07:16:40.406Z,100.00
2023-02-08T07:18:35.797Z,100.00
2023-02-08T07:19:07.174Z,100.00
2023-02-08T07:21:33.563Z,100.00
2023-02-08T07:23:35.788Z,100.00
2023-02-08T07:23:59.955Z,100.00
2023-02-08T07:26:26.369Z,100.00
2023-02-08T07:28:35.775Z,100.00
2023-02-08T07:28:52.701Z,100.00
2023-02-08T07:31:19.151Z,100.00
2023-02-08T07:33:35.824Z,100.00
2023-02-08T07:33:45.609Z,100.00
2023-02-08T07:36:12.098Z,100.00
2023-02-08T07:38:35.834Z,100.00
2023-02-08T07:38:39.327Z,100.00
2023-02-08T07:41:09.299Z,100.00
2023-02-08T07:43:37.443Z,100.00
2023-02-08T07:43:37.617Z,100.00
2023-02-08T07:46:12.694Z,100.00
2023-02-08T07:48:35.785Z,100.00
2023-02-08T07:48:40.471Z,100.00
2023-02-08T07:51:08.037Z,100.00
2023-02-08T07:53:34.701Z,100.00
2023-02-08T07:53:35.798Z,100.00
2023-02-08T07:56:01.174Z,100.00
2023-02-08T07:58:27.652Z,100.00
2023-02-08T07:58:35.797Z,100.00
2023-02-08T08:00:54.143Z,100.00
2023-02-08T08:03:20.980Z,100.00
2023-02-08T08:03:35.846Z,100.00
2023-02-08T08:05:47.420Z,100.00
2023-02-08T08:08:13.996Z,100.00
2023-02-08T08:08:35.794Z,100.00
2023-02-08T08:10:41.290Z,100.00
2023-02-08T08:13:07.887Z,100.00
2023-02-08T08:13:35.836Z,100.00
2023-02-08T08:15:34.568Z,100.00
2023-02-08T08:18:03.323Z,100.00
2023-02-08T08:18:35.840Z,100.00
2023-02-08T08:20:29.681Z,100.00
2023-02-08T08:22:56.109Z,100.00
2023-02-08T08:23:35.823Z,100.00
2023-02-08T08:25:22.489Z,100.00
2023-02-08T08:27:48.936Z,100.00
2023-02-08T08:28:35.957Z,100.00
2023-02-08T08:30:17.053Z,100.00
2023-02-08T08:32:43.530Z,100.00
2023-02-08T08:33:35.834Z,100.00
2023-02-08T08:35:10.951Z,100.00
2023-02-08T08:37:37.678Z,100.00
2023-02-08T08:38:35.843Z,100.00
2023-02-08T08:40:07.601Z,98.32
2023-02-08T08:42:35.005Z,96.94
2023-02-08T08:43:35.799Z,96.94
2023-02-08T08:45:01.600Z,95.97
2023-02-08T08:47:28.073Z,94.48
2023-02-08T08:48:35.826Z,94.48
2023-02-08T08:49:54.460Z,92.01
2023-02-08T08:52:21.259Z,90.64
2023-02-08T08:53:35.811Z,90.64
2023-02-08T08:54:47.674Z,89.32
2023-02-08T08:57:14.058Z,86.93
2023-02-08T08:58:35.814Z,86.93
2023-02-08T08:59:40.591Z,85.07
2023-02-08T09:02:07.104Z,84.23
2023-02-08T09:03:35.893Z,84.23
2023-02-08T09:04:33.955Z,82.81
2023-02-08T09:07:00.356Z,82.09
2023-02-08T09:08:35.802Z,82.09
2023-02-08T09:09:26.724Z,80.65
2023-02-08T09:11:53.158Z,79.38
2023-02-08T09:13:35.802Z,79.38
2023-02-08T09:14:19.619Z,78.33
2023-02-08T09:16:48.070Z,78.50
2023-02-08T09:18:35.802Z,78.50
2023-02-08T09:19:16.123Z,77.50
2023-02-08T09:21:43.213Z,77.18
2023-02-08T09:23:35.797Z,77.18
2023-02-08T09:24:09.815Z,76.00
2023-02-08T09:26:36.379Z,74.16
2023-02-08T09:28:35.874Z,74.16
2023-02-08T09:29:03.117Z,72.12
2023-02-08T09:31:36.519Z,71.13
2023-02-08T09:33:35.803Z,71.13
2023-02-08T09:34:04.447Z,69.95
2023-02-08T09:36:37.279Z,69.20
2023-02-08T09:38:35.839Z,69.20
2023-02-08T09:39:20.450Z,68.96
2023-02-08T09:41:49.529Z,68.24
2023-02-08T09:43:35.799Z,68.24
2023-02-08T09:44:32.605Z,67.44
2023-02-08T09:47:06.351Z,66.84
2023-02-08T09:48:35.819Z,66.84
2023-02-08T09:49:38.445Z,65.51
2023-02-08T09:52:16.109Z,64.05
2023-02-08T09:53:35.830Z,64.05
2023-02-08T09:54:51.705Z,62.46
2023-02-08T09:57:22.942Z,61.50
2023-02-08T09:58:35.827Z,61.50
2023-02-08T10:00:00.224Z,59.53
2023-02-08T10:02:36.850Z,57.61
2023-02-08T10:03:35.986Z,57.61
2023-02-08T10:05:05.575Z,56.79
2023-02-08T10:07:34.487Z,54.63
2023-02-08T10:08:35.975Z,54.63
2023-02-08T10:10:05.075Z,54.82
2023-02-08T10:12:37.219Z,54.14
2023-02-08T10:13:41.320Z,54.14
2023-02-08T10:15:15.827Z,54.58
2023-02-08T10:18:00.826Z,53.16
2023-02-08T10:18:35.848Z,53.16
2023-02-08T10:20:59.602Z,52.50
2023-02-08T10:23:48.035Z,52.83
2023-02-08T10:23:48.178Z,52.83
2023-02-08T10:26:17.086Z,52.03
2023-02-08T10:28:35.908Z,52.03
2023-02-08T10:29:11.972Z,52.22
2023-02-08T10:31:47.628Z,51.55
2023-02-08T10:33:35.948Z,51.55
2023-02-08T10:34:37.261Z,49.92
2023-02-08T10:37:14.922Z,49.00
2023-02-08T10:38:45.891Z,49.00
2023-02-08T10:39:45.297Z,49.76
2023-02-08T10:42:24.777Z,48.99
2023-02-08T10:43:35.946Z,48.99
2023-02-08T10:45:22.558Z,48.71
2023-02-08T10:47:56.819Z,45.76
2023-02-08T10:48:35.909Z,45.76
2023-02-08T10:50:41.555Z,45.90
2023-02-08T10:53:17.392Z,45.58
2023-02-08T10:53:36.226Z,45.58
2023-02-08T10:55:48.837Z,44.61
2023-02-08T10:58:21.404Z,44.18
2023-02-08T10:58:35.894Z,44.18
2023-02-08T11:00:51.778Z,43.21
2023-02-08T11:03:27.832Z,42.89
2023-02-08T11:03:36.178Z,42.89
2023-02-08T11:05:57.216Z,43.88
2023-02-08T11:08:27.945Z,43.97
2023-02-08T11:08:35.911Z,43.97
2023-02-08T11:11:05.408Z,44.49
2023-02-08T11:13:46.789Z,43.55
2023-02-08T11:13:47.059Z,43.55
2023-02-08T11:16:24.398Z,43.88
2023-02-08T11:18:35.905Z,43.88
2023-02-08T11:19:03.619Z,43.42
2023-02-08T11:21:34.829Z,42.77
2023-02-08T11:23:36.214Z,42.77
2023-02-08T11:24:21.359Z,43.67
2023-02-08T11:26:57.525Z,42.34
2023-02-08T11:28:35.939Z,42.34
2023-02-08T11:29:34.243Z,42.44
2023-02-08T11:32:17.952Z,41.24
2023-02-08T11:33:35.907Z,41.24
2023-02-08T11:34:47.678Z,42.83
2023-02-08T11:37:23.479Z,41.48
2023-02-08T11:38:35.931Z,41.48
2023-02-08T11:39:56.292Z,41.65
2023-02-08T11:42:30.759Z,41.01
2023-02-08T11:43:36.179Z,41.01
2023-02-08T11:45:05.002Z,40.12
2023-02-08T11:47:34.148Z,40.42
2023-02-08T11:48:35.820Z,40.42
2023-02-08T11:50:08.995Z,40.52
2023-02-08T11:52:42.647Z,40.67
2023-02-08T11:53:35.848Z,40.67
2023-02-08T11:55:18.339Z,38.84
2023-02-08T11:58:13.363Z,38.94
2023-02-08T11:58:35.826Z,38.94
2023-02-08T12:00:41.161Z,38.89
2023-02-08T12:03:14.705Z,38.76
2023-02-08T12:03:35.863Z,38.76
2023-02-08T12:06:06.673Z,38.64
2023-02-08T12:08:57.888Z,38.61
2023-02-08T12:08:58.072Z,38.61
2023-02-08T12:11:34.217Z,37.86
2023-02-08T12:13:35.847Z,37.86
2023-02-08T12:14:15.811Z,39.48
2023-02-08T12:17:15.435Z,39.00
2023-02-08T12:18:35.830Z,39.00
2023-02-08T12:20:09.366Z,40.34
2023-02-08T12:22:42.157Z,39.16
2023-02-08T12:23:35.821Z,39.16
2023-02-08T12:25:14.661Z,38.37
2023-02-08T12:27:49.470Z,37.74
2023-02-08T12:28:35.816Z,37.74
2023-02-08T12:30:36.686Z,36.85
2023-02-08T12:33:24.065Z,35.79
2023-02-08T12:33:35.842Z,35.79
2023-02-08T12:36:09.231Z,35.88
2023-02-08T12:39:22.780Z,35.17
2023-02-08T12:39:26.049Z,35.17
2023-02-08T12:42:00.728Z,35.12
2023-02-08T12:43:35.860Z,35.12
2023-02-08T12:44:43.165Z,35.68
2023-02-08T12:47:24.562Z,35.16
2023-02-08T12:48:35.862Z,35.16
2023-02-08T12:50:41.595Z,35.97
2023-02-08T12:53:30.693Z,34.56
2023-02-08T12:53:35.892Z,34.56
2023-02-08T12:56:04.078Z,35.58
2023-02-08T12:58:38.461Z,35.59
2023-02-08T12:58:38.597Z,35.59
2023-02-08T13:01:13.916Z,33.86
2023-02-08T13:03:35.981Z,33.86
2023-02-08T13:03:47.710Z,34.10
2023-02-08T13:06:20.787Z,33.62
2023-02-08T13:08:36.036Z,33.62
2023-02-08T13:09:05.606Z,33.53
2023-02-08T13:11:42.457Z,33.54
2023-02-08T13:13:36.014Z,33.54
2023-02-08T13:14:35.865Z,34.56
2023-02-08T13:17:14.632Z,33.66
2023-02-08T13:18:36.013Z,33.66
2023-02-08T13:20:00.696Z,34.29
2023-02-08T13:22:32.123Z,33.51
2023-02-08T13:23:43.535Z,33.51
2023-02-08T13:25:06.920Z,33.08
2023-02-08T13:27:34.475Z,33.99
2023-02-08T13:28:36.072Z,33.99
2023-02-08T13:30:01.508Z,34.79
2023-02-08T13:32:42.780Z,33.50
2023-02-08T13:33:36.078Z,33.50
2023-02-08T13:35:17.771Z,33.65
2023-02-08T13:37:52.650Z,34.65
2023-02-08T13:38:36.104Z,34.65
2023-02-08T13:40:27.881Z,33.81
2023-02-08T13:43:34.763Z,33.64
2023-02-08T13:43:38.360Z,33.64
2023-02-08T13:46:03.169Z,34.70
2023-02-08T13:48:43.012Z,34.61
2023-02-08T13:48:43.177Z,34.61
2023-02-08T13:51:31.886Z,34.75
2023-02-08T13:53:36.173Z,34.75
2023-02-08T13:53:58.260Z,35.15
2023-02-08T13:56:48.119Z,35.10
2023-02-08T13:58:36.210Z,35.10
2023-02-08T13:59:36.684Z,34.51
2023-02-08T14:02:12.191Z,35.26
2023-02-08T14:03:36.259Z,35.26
2023-02-08T14:04:40.613Z,33.82
2023-02-08T14:07:30.084Z,34.45
2023-02-08T14:08:36.306Z,34.45
2023-02-08T14:10:07.330Z,35.10
2023-02-08T14:12:45.278Z,35.55
2023-02-08T14:13:36.320Z,35.55
2023-02-08T14:15:14.401Z,34.88
2023-02-08T14:17:44.111Z,34.77
2023-02-08T14:18:36.430Z,34.77
2023-02-08T14:20:19.559Z,35.50
2023-02-08T14:22:55.259Z,34.58
2023-02-08T14:23:38.203Z,34.58
2023-02-08T14:25:24.710Z,35.96
2023-02-08T14:27:58.718Z,35.36
2023-02-08T14:28:36.380Z,35.36
2023-02-08T14:30:30.119Z,35.67
2023-02-08T14:33:08.811Z,36.35
2023-02-08T14:33:36.346Z,36.35
2023-02-08T14:35:49.898Z,35.91
2023-02-08T14:38:19.073Z,36.46
2023-02-08T14:38:36.381Z,36.46
2023-02-08T14:40:51.744Z,35.94
2023-02-08T14:43:24.063Z,36.41
2023-02-08T14:43:36.350Z,23
2023-02-08T14:45:52.169Z,36.97
2023-02-08T14:48:34.692Z,35.23
2023-02-08T14:48:36.330Z,35.23
2023-02-08T14:51:17.127Z,36.06
2023-02-08T14:53:36.339Z,36.06
2023-02-08T14:53:55.517Z,36.22
2023-02-08T14:56:32.159Z,37.33
2023-02-08T14:58:36.352Z,37.33
2023-02-08T14:59:12.208Z,37.80
2023-02-08T15:01:50.998Z,38.39
2023-02-08T15:03:36.358Z,38.39
2023-02-08T15:04:20.311Z,38.70
2023-02-08T15:07:23.614Z,37.96
2023-02-08T15:08:36.351Z,37.96
2023-02-08T15:09:50.177Z,37.25
2023-02-08T15:12:26.432Z,37.58
2023-02-08T15:13:36.421Z,37.58
2023-02-08T15:14:55.348Z,38.66
2023-02-08T15:17:33.695Z,38.30
2023-02-08T15:18:36.342Z,38.30
2023-02-08T15:20:02.371Z,38.01
2023-02-08T15:22:38.060Z,37.56
2023-02-08T15:23:36.344Z,37.56
2023-02-08T15:25:27.732Z,37.71
2023-02-08T15:28:01.044Z,39.35
2023-02-08T15:28:36.326Z,39.35
2023-02-08T15:30:29.244Z,40.08
2023-02-08T15:32:56.905Z,39.09
2023-02-08T15:33:36.382Z,39.09
2023-02-08T15:35:25.949Z,39.36
2023-02-08T15:37:55.875Z,38.14
2023-02-08T15:38:36.379Z,38.14
2023-02-08T15:40:28.848Z,38.82
2023-02-08T15:43:02.096Z,39.61
2023-02-08T15:43:36.346Z,39.61
2023-02-08T15:45:31.506Z,39.92
2023-02-08T15:47:59.925Z,39.96
2023-02-08T15:48:36.347Z,39.96
2023-02-08T15:50:28.555Z,39.38
2023-02-08T15:53:04.614Z,40.53
2023-02-08T15:53:36.342Z,40.53
2023-02-08T15:55:39.825Z,40.32
2023-02-08T15:58:15.436Z,40.88
2023-02-08T15:58:36.326Z,40.88
2023-02-08T16:00:44.354Z,41.15
2023-02-08T16:03:30.664Z,41.81
2023-02-08T16:03:36.455Z,41.81
2023-02-08T16:06:00.455Z,42.12
2023-02-08T16:08:30.478Z,42.61
2023-02-08T16:08:36.336Z,42.61
2023-02-08T16:11:00.455Z,42.72
2023-02-08T16:13:36.359Z,42.62
2023-02-08T16:13:36.515Z,42.62
2023-02-08T16:16:42.299Z,43.94
2023-02-08T16:18:36.346Z,43.94
2023-02-08T16:19:32.827Z,44.12
2023-02-08T16:22:20.987Z,43.79
2023-02-08T16:23:36.337Z,43.79
2023-02-08T16:24:47.733Z,43.27
2023-02-08T16:27:27.469Z,44.26
2023-02-08T16:28:36.435Z,44.26
2023-02-08T16:29:54.060Z,43.66
2023-02-08T16:32:28.198Z,44.56
2023-02-08T16:33:36.324Z,44.56
2023-02-08T16:34:55.436Z,45.16
2023-02-08T16:37:30.959Z,45.18
2023-02-08T16:38:36.350Z,45.18
2023-02-08T16:40:17.642Z,45.49
2023-02-08T16:42:44.249Z,44.86
2023-02-08T16:43:36.331Z,44.86
2023-02-08T16:45:13.038Z,45.58
2023-02-08T16:47:52.087Z,45.02
2023-02-08T16:48:36.374Z,45.02
2023-02-08T16:50:21.718Z,44.75
2023-02-08T16:52:51.058Z,44.85
2023-02-08T16:53:42.247Z,44.85
2023-02-08T16:55:24.821Z,44.16
2023-02-08T16:57:53.414Z,44.62
2023-02-08T16:58:36.336Z,44.62
2023-02-08T17:00:34.749Z,44.30
2023-02-08T17:03:02.073Z,45.08
2023-02-08T17:03:36.385Z,45.08
2023-02-08T17:05:36.612Z,45.38
2023-02-08T17:08:09.803Z,46.24
2023-02-08T17:08:36.352Z,46.24
2023-02-08T17:10:36.190Z,46.36
2023-02-08T17:13:19.161Z,46.93
2023-02-08T17:13:36.355Z,46.93
2023-02-08T17:15:49.045Z,47.13
2023-02-08T17:18:15.866Z,47.32
2023-02-08T17:18:36.347Z,47.32
2023-02-08T17:20:42.406Z,47.58
2023-02-08T17:23:09.775Z,47.50
2023-02-08T17:23:36.346Z,47.50
2023-02-08T17:25:36.329Z,46.51
2023-02-08T17:28:06.199Z,45.94
2023-02-08T17:28:36.330Z,45.94
2023-02-08T17:30:36.055Z,45.15
2023-02-08T17:33:03.990Z,46.21
2023-02-08T17:33:36.357Z,46.21
2023-02-08T17:35:30.983Z,45.67
2023-02-08T17:37:58.357Z,45.53
2023-02-08T17:38:36.342Z,45.53
2023-02-08T17:40:30.995Z,45.83
2023-02-08T17:42:57.284Z,46.43
2023-02-08T17:43:36.362Z,23
2023-02-08T17:45:23.699Z,46.88
2023-02-08T17:47:50.644Z,47.23
2023-02-08T17:48:36.362Z,47.23
2023-02-08T17:50:20.832Z,47.24
2023-02-08T17:52:48.043Z,47.41
2023-02-08T17:53:36.350Z,47.41
2023-02-08T17:55:16.130Z,47.75
2023-02-08T17:57:43.952Z,47.86
2023-02-08T17:58:36.367Z,47.86
2023-02-08T18:00:14.068Z,48.01
2023-02-08T18:02:47.153Z,48.12
2023-02-08T18:03:36.437Z,48.12
2023-02-08T18:05:25.014Z,48.98
2023-02-08T18:07:53.448Z,49.14
2023-02-08T18:08:37.451Z,49.14
2023-02-08T18:10:20.080Z,48.58
2023-02-08T18:12:47.193Z,49.09
2023-02-08T18:13:36.387Z,49.09
2023-02-08T18:15:19.817Z,49.44
2023-02-08T18:17:46.488Z,50.09
2023-02-08T18:18:36.387Z,23
2023-02-08T18:20:14.360Z,50.17
2023-02-08T18:22:43.935Z,50.73
2023-02-08T18:23:36.365Z,50.73
2023-02-08T18:25:12.436Z,50.33
2023-02-08T18:27:39.560Z,50.52
2023-02-08T18:28:36.420Z,50.52
2023-02-08T18:30:06.570Z,51.07
2023-02-08T18:32:33.044Z,51.20
2023-02-08T18:33:36.346Z,51.20
2023-02-08T18:35:01.167Z,51.31
2023-02-08T18:37:28.974Z,51.72
2023-02-08T18:38:36.395Z,51.72
2023-02-08T18:39:55.414Z,51.83
2023-02-08T18:42:21.874Z,51.76
2023-02-08T18:43:36.378Z,51.76
2023-02-08T18:44:48.277Z,52.63
2023-02-08T18:47:14.699Z,53.15
2023-02-08T18:48:36.343Z,53.15
2023-02-08T18:49:41.134Z,53.79
2023-02-08T18:52:12.564Z,53.85
2023-02-08T18:53:36.363Z,53.85
2023-02-08T18:54:40.088Z,53.60
2023-02-08T18:57:09.399Z,53.49
2023-02-08T18:58:36.380Z,53.49
2023-02-08T18:59:36.293Z,53.82
2023-02-08T19:02:02.766Z,53.61
2023-02-08T19:03:36.361Z,53.61
2023-02-08T19:04:29.474Z,53.83
2023-02-08T19:06:55.956Z,53.56
2023-02-08T19:08:36.380Z,53.56
2023-02-08T19:09:22.345Z,54.07
2023-02-08T19:11:48.870Z,54.37
2023-02-08T19:13:36.368Z,54.37
2023-02-08T19:14:15.856Z,54.96
2023-02-08T19:16:43.341Z,54.98
2023-02-08T19:18:36.390Z,54.98
2023-02-08T19:19:10.784Z,54.97
2023-02-08T19:21:38.535Z,55.56
2023-02-08T19:23:36.383Z,55.56
2023-02-08T19:24:05.547Z,55.94
2023-02-08T19:26:36.782Z,56.30
2023-02-08T19:28:36.404Z,56.30
2023-02-08T19:29:06.596Z,56.19
2023-02-08T19:31:33.940Z,56.52
2023-02-08T19:33:36.360Z,56.52
2023-02-08T19:34:02.810Z,56.92
2023-02-08T19:36:32.996Z,57.42
2023-02-08T19:38:36.401Z,57.42
2023-02-08T19:39:00.741Z,57.06
2023-02-08T19:41:33.443Z,57.34
2023-02-08T19:43:36.382Z,57.34
2023-02-08T19:44:03.745Z,57.57
2023-02-08T19:46:30.174Z,57.66
2023-02-08T19:48:36.397Z,57.66
2023-02-08T19:49:00.039Z,57.77
2023-02-08T19:51:28.341Z,57.59
2023-02-08T19:53:36.401Z,57.59
2023-02-08T19:53:56.886Z,57.22
2023-02-08T19:56:23.493Z,57.98
2023-02-08T19:58:36.387Z,57.98
2023-02-08T19:58:49.832Z,57.68
2023-02-08T20:01:19.549Z,57.82
2023-02-08T20:03:36.364Z,57.82
2023-02-08T20:03:47.814Z,57.62
2023-02-08T20:06:27.002Z,57.27
2023-02-08T20:08:36.413Z,57.27
2023-02-08T20:08:54.080Z,57.83
2023-02-08T20:11:20.473Z,57.43
2023-02-08T20:13:36.377Z,57.43
2023-02-08T20:13:47.171Z,57.95
2023-02-08T20:16:13.753Z,57.36
2023-02-08T20:18:36.401Z,57.36
2023-02-08T20:18:40.403Z,57.54
2023-02-08T20:21:07.598Z,58.47
2023-02-08T20:23:34.527Z,58.58
2023-02-08T20:23:36.363Z,58.58
2023-02-08T20:26:10.661Z,58.42
2023-02-08T20:28:39.199Z,58.14
2023-02-08T20:28:39.355Z,58.14
2023-02-08T20:31:11.044Z,58.44
2023-02-08T20:33:37.615Z,58.84
2023-02-08T20:33:37.751Z,58.84
2023-02-08T20:36:13.623Z,58.91
2023-02-08T20:38:36.379Z,58.91
2023-02-08T20:38:40.440Z,59.41
2023-02-08T20:41:13.391Z,59.42
2023-02-08T20:43:36.406Z,59.42
2023-02-08T20:43:41.514Z,60.26
2023-02-08T20:46:12.278Z,60.43
2023-02-08T20:48:36.387Z,60.43
2023-02-08T20:48:38.684Z,60.05
2023-02-08T20:51:11.549Z,60.75
2023-02-08T20:53:36.389Z,60.75
2023-02-08T20:53:41.544Z,60.78
2023-02-08T20:56:16.929Z,61.78
2023-02-08T20:58:36.399Z,61.78
2023-02-08T20:58:44.436Z,61.34
2023-02-08T21:01:20.482Z,62.23
2023-02-08T21:03:36.415Z,62.23
2023-02-08T21:03:47.591Z,62.38
2023-02-08T21:06:32.384Z,61.95
2023-02-08T21:08:36.405Z,61.95
2023-02-08T21:09:01.017Z,62.34
2023-02-08T21:11:30.341Z,62.36
2023-02-08T21:13:36.390Z,62.36
2023-02-08T21:13:57.525Z,62.87
2023-02-08T21:16:24.685Z,62.71
2023-02-08T21:18:36.409Z,62.71
2023-02-08T21:18:51.708Z,62.39
2023-02-08T21:21:18.298Z,62.83
2023-02-08T21:23:36.411Z,62.83
2023-02-08T21:23:46.378Z,63.79
2023-02-08T21:26:15.757Z,63.79
2023-02-08T21:28:36.540Z,63.79
2023-02-08T21:28:44.518Z,63.54